createdAt,value
2019-01-30T05:38:06.258Z,0.2
2019-01-30T05:39:18.455Z,0.1
2019-01-30T05:40:30.566Z,0
2019-01-30T05:41:42.768Z,-0.1
2019-01-30T05:44:07.156Z,-0.2
2019-01-30T05:45:19.347Z,-0.2
2019-01-30T05:46:31.530Z,-0.3
2019-01-30T05:47:43.811Z,-0.3
2019-01-30T05:48:55.928Z,-0.2
2019-01-30T05:50:08.128Z,-0.2
2019-01-30T05:51:20.379Z,-0.2
2019-01-30T05:52:32.637Z,-0.2
2019-01-30T05:53:44.778Z,-0.2
2019-01-30T05:56:09.106Z,-0.2
2019-01-30T05:57:21.364Z,-0.2
2019-01-30T05:58:33.490Z,-0.2
2019-01-30T05:59:45.700Z,-0.2
2019-01-30T06:00:57.916Z,-0.2
2019-01-30T06:02:10.871Z,-0.2
2019-01-30T06:04:34.463Z,-0.2
2019-01-30T06:05:46.695Z,-0.2
2019-01-30T06:08:11.123Z,-0.2
2019-01-30T06:09:23.243Z,-0.2
2019-01-30T06:10:35.437Z,-0.2
2019-01-30T06:11:47.664Z,-0.2
2019-01-30T06:12:59.837Z,-0.2
2019-01-30T06:14:12.034Z,-0.2
2019-01-30T06:15:24.229Z,-0.2
2019-01-30T06:16:36.514Z,-0.2
2019-01-30T06:17:48.681Z,-0.2
2019-01-30T06:20:13.034Z,-0.2
2019-01-30T06:21:25.294Z,-0.2
2019-01-30T06:22:37.516Z,-0.2
2019-01-30T06:23:49.683Z,-0.2
2019-01-30T06:25:01.820Z,-0.1
2019-01-30T06:26:13.996Z,-0.1
2019-01-30T06:27:26.192Z,-0.1
2019-01-30T06:28:38.367Z,0
2019-01-30T06:29:50.575Z,-0.1
2019-01-30T06:32:14.973Z,0
2019-01-30T06:33:27.151Z,0
2019-01-30T06:34:39.347Z,0
2019-01-30T06:35:51.547Z,0
2019-01-30T06:37:03.827Z,0
2019-01-30T06:38:15.946Z,0
2019-01-30T06:40:40.399Z,0
2019-01-30T06:41:52.594Z,0.1
2019-01-30T06:44:16.915Z,0.1
2019-01-30T06:45:29.107Z,0.1
2019-01-30T06:46:41.440Z,0.1
2019-01-30T06:47:53.499Z,0.1
2019-01-30T06:49:06.577Z,0.1
2019-01-30T06:50:17.894Z,0.1
2019-01-30T06:51:30.189Z,0.1
2019-01-30T06:52:43.338Z,0.1
2019-01-30T06:53:54.493Z,0.1
2019-01-30T06:56:18.887Z,0.1
2019-01-30T06:57:31.066Z,0.1
2019-01-30T06:58:43.373Z,0.1
2019-01-30T06:59:55.502Z,0.1
2019-01-30T07:01:07.651Z,0.1
2019-01-30T07:02:19.935Z,0.1
2019-01-30T07:03:32.128Z,0.1
2019-01-30T07:04:44.245Z,0.1
2019-01-30T07:05:56.530Z,0.1
2019-01-30T07:08:20.938Z,0.1
2019-01-30T07:09:33.026Z,0.1
2019-01-30T07:10:45.229Z,0.1
2019-01-30T07:11:57.480Z,0.1
2019-01-30T07:13:09.675Z,0.1
2019-01-30T07:14:21.833Z,0.1
2019-01-30T07:15:34.007Z,0.1
2019-01-30T07:16:46.361Z,0.2
2019-01-30T07:17:58.407Z,0.1
2019-01-30T07:20:22.883Z,0.1
2019-01-30T07:21:35.086Z,0.2
2019-01-30T07:22:47.174Z,0.2
2019-01-30T07:23:59.394Z,0.2
2019-01-30T07:25:13.538Z,0.2
2019-01-30T07:26:23.793Z,0.2
2019-01-30T07:27:36.032Z,0.2
2019-01-30T07:28:48.151Z,0.2
2019-01-30T07:30:00.355Z,0.2
2019-01-30T07:32:24.741Z,0.2
2019-01-30T07:33:36.942Z,0.2
2019-01-30T07:34:49.147Z,0.2
2019-01-30T07:36:01.412Z,0.2
2019-01-30T07:37:13.601Z,0.2
2019-01-30T07:38:25.744Z,0.2
2019-01-30T07:39:37.941Z,0.3
2019-01-30T07:40:50.296Z,0.3
2019-01-30T07:42:02.482Z,0.3
2019-01-30T07:43:14.521Z,0.3
2019-01-30T07:44:26.709Z,0.3
2019-01-30T07:45:38.970Z,0.3
2019-01-30T07:46:51.098Z,0.3
2019-01-30T07:48:03.291Z,0.3
2019-01-30T07:49:15.590Z,0.4
2019-01-30T07:50:27.792Z,0.4
2019-01-30T07:51:39.965Z,0.4
2019-01-30T07:52:52.066Z,0.4
2019-01-30T07:54:04.268Z,0.4
2019-01-30T07:56:30.421Z,0.4
2019-01-30T07:57:40.885Z,0.4
2019-01-30T07:58:53.057Z,0.4
2019-01-30T08:00:05.273Z,0.4
2019-01-30T08:01:17.476Z,0.5
2019-01-30T08:02:29.727Z,0.5
2019-01-30T08:03:41.859Z,0.5
2019-01-30T08:04:54.021Z,0.5
2019-01-30T08:06:06.231Z,0.5
2019-01-30T08:08:30.722Z,0.6
2019-01-30T08:09:42.892Z,0.6
2019-01-30T08:10:55.009Z,0.6
2019-01-30T08:12:07.285Z,0.7
2019-01-30T08:13:19.582Z,0.7
2019-01-30T08:14:31.592Z,0.7
2019-01-30T08:15:43.789Z,0.7
2019-01-30T08:16:55.990Z,0.8
2019-01-30T08:18:08.178Z,0.8
2019-01-30T08:20:32.750Z,0.9
2019-01-30T08:21:44.759Z,0.9
2019-01-30T08:22:57.067Z,0.9
2019-01-30T08:24:09.179Z,0.9
2019-01-30T08:25:21.508Z,0.9
2019-01-30T08:26:33.542Z,1
2019-01-30T08:27:45.823Z,1
2019-01-30T08:28:57.934Z,1
2019-01-30T08:30:10.156Z,1
2019-01-30T08:31:22.343Z,1
2019-01-30T08:32:34.538Z,1
2019-01-30T08:33:46.722Z,0.9
2019-01-30T08:34:59.020Z,0.9
2019-01-30T08:36:11.117Z,0.9
2019-01-30T08:37:23.391Z,0.9
2019-01-30T08:38:35.503Z,0.9
2019-01-30T08:39:47.879Z,0.9
2019-01-30T08:40:59.969Z,0.9
2019-01-30T08:42:12.092Z,1
2019-01-30T08:44:36.510Z,1
2019-01-30T08:45:48.746Z,1
2019-01-30T08:47:00.961Z,1.1
2019-01-30T08:48:13.082Z,1
2019-01-30T08:50:37.467Z,1.1
2019-01-30T08:51:49.658Z,1.1
2019-01-30T08:53:01.916Z,1.1
2019-01-30T08:54:14.049Z,1.1
2019-01-30T08:56:38.537Z,1.1
2019-01-30T08:57:50.699Z,1.2
2019-01-30T08:59:02.830Z,1.2
2019-01-30T09:00:15.030Z,1.2
2019-01-30T09:01:27.267Z,1.3
2019-01-30T09:02:39.530Z,1.3
2019-01-30T09:03:51.667Z,1.3
2019-01-30T09:05:03.807Z,1.3
2019-01-30T09:06:16.014Z,1.3
2019-01-30T09:08:40.430Z,1.3
2019-01-30T09:09:52.672Z,1.4
2019-01-30T09:11:04.783Z,1.5
2019-01-30T09:12:17.056Z,1.4
2019-01-30T09:13:29.181Z,1.5
2019-01-30T09:14:41.387Z,1.5
2019-01-30T09:15:53.647Z,1.5
2019-01-30T09:17:05.773Z,1.5
2019-01-30T09:18:17.956Z,1.5
2019-01-30T09:19:30.270Z,1.6
2019-01-30T09:20:42.421Z,1.6
2019-01-30T09:21:54.556Z,1.7
2019-01-30T09:23:06.752Z,1.7
2019-01-30T09:24:18.943Z,1.7
2019-01-30T09:25:31.229Z,1.7
2019-01-30T09:27:55.595Z,1.7
2019-01-30T09:29:07.716Z,1.6
2019-01-30T09:30:19.999Z,1.6
2019-01-30T09:32:44.397Z,1.6
2019-01-30T09:33:56.537Z,1.5
2019-01-30T09:35:08.801Z,1.5
2019-01-30T09:36:20.973Z,1.6
2019-01-30T09:37:33.108Z,1.7
2019-01-30T09:38:45.289Z,1.7
2019-01-30T09:39:57.485Z,1.6
2019-01-30T09:41:09.661Z,1.6
2019-01-30T09:42:22.044Z,1.6
2019-01-30T09:44:46.313Z,1.7
2019-01-30T09:45:58.532Z,1.8
2019-01-30T09:48:22.863Z,1.7
2019-01-30T09:49:35.051Z,1.6
2019-01-30T09:51:59.509Z,1.6
2019-01-30T09:53:11.628Z,1.7
2019-01-30T09:54:23.843Z,1.7
2019-01-30T09:56:48.221Z,1.8
2019-01-30T09:58:00.426Z,1.7
2019-01-30T09:59:12.602Z,1.7
2019-01-30T10:00:24.813Z,1.7
2019-01-30T10:01:37.080Z,1.7
2019-01-30T10:04:01.391Z,1.7
2019-01-30T10:05:13.579Z,1.8
2019-01-30T10:06:25.910Z,1.9
2019-01-30T10:10:02.527Z,1.7
2019-01-30T10:11:14.634Z,1.7
2019-01-30T10:12:26.758Z,1.7
2019-01-30T10:13:38.955Z,1.6
2019-01-30T10:14:51.234Z,1.7
2019-01-30T10:17:15.547Z,1.7
2019-01-30T10:18:27.735Z,1.7
2019-01-30T10:20:52.211Z,1.8
2019-01-30T10:22:04.373Z,1.7
2019-01-30T10:23:16.615Z,1.7
2019-01-30T10:24:28.724Z,1.7
2019-01-30T10:25:41.373Z,1.7
2019-01-30T10:26:53.167Z,1.7
2019-01-30T10:28:05.323Z,1.7
2019-01-30T10:29:17.536Z,1.7
2019-01-30T10:30:29.690Z,1.7
2019-01-30T10:32:54.079Z,1.8
2019-01-30T10:34:06.357Z,1.8
2019-01-30T10:35:18.597Z,1.8
2019-01-30T10:36:30.706Z,1.7
2019-01-30T10:37:42.948Z,1.7
2019-01-30T10:38:55.061Z,1.8
2019-01-30T10:40:07.334Z,1.8
2019-01-30T10:41:19.523Z,1.8
2019-01-30T10:42:31.646Z,1.8
2019-01-30T10:46:08.248Z,2
2019-01-30T10:47:20.519Z,2
2019-01-30T10:48:32.651Z,2
2019-01-30T10:49:44.823Z,2
